createdAt,value
2022-10-05T00:01:33.249Z,78.23
2022-10-05T00:04:15.621Z,78.06
2022-10-05T00:06:46.682Z,79.45
2022-10-05T00:09:19.224Z,78.48
2022-10-05T00:11:49.967Z,79.21
2022-10-05T00:14:23.399Z,79.03
2022-10-05T00:16:53.032Z,79.68
2022-10-05T00:19:28.417Z,78.91
2022-10-05T00:22:00.324Z,78.54
2022-10-05T00:24:31.073Z,78.92
2022-10-05T00:27:02.982Z,78.77
2022-10-05T00:29:35.518Z,78.30
2022-10-05T00:32:04.894Z,79.23
2022-10-05T00:34:35.514Z,79.19
2022-10-05T00:37:05.748Z,79.44
2022-10-05T00:39:37.238Z,79.46
2022-10-05T00:42:30.680Z,79.51
2022-10-05T00:45:08.184Z,79.14
2022-10-05T00:47:48.690Z,78.52
2022-10-05T00:50:50.132Z,78.58
2022-10-05T00:53:31.322Z,79.66
2022-10-05T00:56:06.632Z,79.32
2022-10-05T00:58:48.667Z,79.24
2022-10-05T01:01:24.607Z,79.78
2022-10-05T01:04:10.504Z,79.23
2022-10-05T01:06:51.206Z,78.68
2022-10-05T01:09:31.479Z,78.85
2022-10-05T01:12:08.825Z,78.21
2022-10-05T01:14:46.557Z,78.34
2022-10-05T01:17:23.962Z,78.42
2022-10-05T01:20:16.858Z,78.43
2022-10-05T01:23:08.750Z,77.93
2022-10-05T01:25:45.938Z,78.79
2022-10-05T01:28:22.750Z,78.19
2022-10-05T01:31:00.378Z,77.87
2022-10-05T01:33:35.259Z,78.72
2022-10-05T01:36:14.282Z,78.71
2022-10-05T01:38:52.556Z,78.76
2022-10-05T01:41:34.698Z,78.44
2022-10-05T01:44:12.421Z,79.60
2022-10-05T01:46:46.452Z,81.03
2022-10-05T01:49:33.758Z,79.71
2022-10-05T01:52:14.294Z,80.31
2022-10-05T01:54:56.531Z,79.68
2022-10-05T01:57:38.595Z,80.25
2022-10-05T02:00:12.560Z,79.87
2022-10-05T02:02:49.510Z,79.97
2022-10-05T02:05:22.959Z,80.54
2022-10-05T02:07:56.980Z,80.23
2022-10-05T02:10:32.429Z,79.50
2022-10-05T02:13:07.928Z,79.50
2022-10-05T02:15:43.522Z,78.89
2022-10-05T02:18:20.959Z,79.36
2022-10-05T02:20:54.104Z,79.57
2022-10-05T02:23:28.271Z,80.31
2022-10-05T02:25:59.565Z,79.41
2022-10-05T02:28:34.673Z,80.29
2022-10-05T02:36:22.067Z,79.95
2022-10-05T02:39:02.780Z,80.17
2022-10-05T02:41:44.064Z,79.89
2022-10-05T02:44:25.277Z,80.33
2022-10-05T02:47:01.974Z,81.43
2022-10-05T02:49:42.526Z,80.50
2022-10-05T02:52:20.109Z,82.33
2022-10-05T02:55:00.758Z,82.50
2022-10-05T02:57:35.407Z,82.75
2022-10-05T03:00:15.154Z,82.11
2022-10-05T03:02:50.998Z,82.18
2022-10-05T03:05:25.052Z,81.35
2022-10-05T03:08:02.359Z,80.32
2022-10-05T03:10:40.862Z,80.30
2022-10-05T03:13:15.803Z,79.87
2022-10-05T03:16:13.946Z,78.57
2022-10-05T03:18:56.643Z,78.44
2022-10-05T03:21:37.844Z,78.50
2022-10-05T03:24:22.454Z,78.24
2022-10-05T03:27:02.227Z,78.59
2022-10-05T03:29:41.831Z,78.79
2022-10-05T03:32:22.863Z,79.02
2022-10-05T03:34:58.459Z,79.87
2022-10-05T03:37:36.086Z,79.42
2022-10-05T03:40:14.810Z,78.76
2022-10-05T03:42:57.259Z,79.49
2022-10-05T03:45:32.036Z,79.51
2022-10-05T03:48:08.720Z,80.15
2022-10-05T03:50:47.109Z,79.38
2022-10-05T03:53:20.993Z,80.03
2022-10-05T03:55:59.619Z,80.87
2022-10-05T03:58:35.753Z,80.84
2022-10-05T04:01:11.508Z,80.14
2022-10-05T04:03:46.371Z,80.35
2022-10-05T04:06:22.302Z,79.59
2022-10-05T04:08:57.726Z,79.27
2022-10-05T04:11:34.766Z,78.94
2022-10-05T04:14:08.423Z,79.71
2022-10-05T04:16:43.187Z,80.01
2022-10-05T04:19:20.328Z,80.19
2022-10-05T04:21:53.360Z,79.27
2022-10-05T04:24:31.868Z,79.14
2022-10-05T04:27:07.978Z,79.70
2022-10-05T04:29:42.600Z,80.00
2022-10-05T04:32:31.499Z,79.18
2022-10-05T04:35:31.152Z,78.74
2022-10-05T04:38:11.295Z,79.39
2022-10-05T04:40:56.015Z,79.76
2022-10-05T04:43:37.672Z,79.42
2022-10-05T04:46:22.651Z,81.07
2022-10-05T04:49:10.471Z,80.92
2022-10-05T04:51:51.177Z,80.61
2022-10-05T04:54:31.877Z,81.27
2022-10-05T04:57:06.767Z,80.33
2022-10-05T05:00:01.908Z,80.01
2022-10-05T05:02:52.995Z,79.92
2022-10-05T05:05:34.438Z,79.61
2022-10-05T05:08:18.307Z,80.71
2022-10-05T05:11:15.825Z,81.37
2022-10-05T05:14:05.846Z,81.25
2022-10-05T05:16:41.070Z,80.66
2022-10-05T05:19:34.890Z,81.21
2022-10-05T05:22:09.020Z,81.54
2022-10-05T05:24:50.102Z,80.42
2022-10-05T05:27:37.564Z,79.24
2022-10-05T05:30:29.156Z,80.72
2022-10-05T05:33:18.732Z,79.08
2022-10-05T05:36:22.840Z,77.89
2022-10-05T05:39:05.252Z,77.52
2022-10-05T05:41:40.530Z,78.15
2022-10-05T05:50:56.667Z,76.46
2022-10-05T05:53:32.096Z,77.22
2022-10-05T05:56:08.027Z,77.57
2022-10-05T05:58:45.955Z,76.15
2022-10-05T06:01:32.808Z,75.43
2022-10-05T06:04:15.687Z,75.98
2022-10-05T06:06:50.192Z,76.12
2022-10-05T06:09:25.783Z,75.03
2022-10-05T06:12:28.617Z,74.80
2022-10-05T06:15:01.802Z,74.97
2022-10-05T06:17:39.133Z,74.65
2022-10-05T06:20:26.872Z,73.33
2022-10-05T06:23:03.303Z,74.59
2022-10-05T06:25:45.747Z,74.07
2022-10-05T06:28:16.615Z,74.56
2022-10-05T06:31:00.173Z,73.86
2022-10-05T06:33:47.833Z,73.00
2022-10-05T06:36:42.170Z,73.17
2022-10-05T06:39:48.728Z,72.84
2022-10-05T06:42:28.812Z,72.77
2022-10-05T06:45:24.631Z,73.83
2022-10-05T06:48:12.660Z,73.22
2022-10-05T06:51:06.117Z,73.32
2022-10-05T06:53:57.779Z,72.56
2022-10-05T06:56:37.595Z,72.19
2022-10-05T06:59:17.791Z,72.58
2022-10-05T07:01:58.106Z,71.98
2022-10-05T07:04:47.250Z,72.06
2022-10-05T07:07:24.442Z,72.41
2022-10-05T07:10:12.250Z,71.91
2022-10-05T07:13:00.168Z,71.61
2022-10-05T07:15:55.975Z,70.99
2022-10-05T07:18:42.074Z,69.88
2022-10-05T07:21:20.380Z,70.35
2022-10-05T07:24:03.684Z,69.30
2022-10-05T07:26:38.775Z,70.68
2022-10-05T07:29:36.221Z,71.19
2022-10-05T07:32:17.042Z,70.56
2022-10-05T07:34:55.980Z,70.41
2022-10-05T07:37:52.105Z,71.82
2022-10-05T07:40:27.407Z,70.83
2022-10-05T07:43:07.654Z,70.84
2022-10-05T07:45:47.653Z,70.15
2022-10-05T07:48:22.124Z,70.12
2022-10-05T07:51:00.572Z,70.28
2022-10-05T07:53:36.921Z,70.68
2022-10-05T07:56:15.094Z,70.38
2022-10-05T07:58:49.524Z,69.98
2022-10-05T08:01:26.014Z,70.28
2022-10-05T08:04:06.250Z,69.79
2022-10-05T08:06:45.413Z,69.12
2022-10-05T08:09:28.610Z,69.83
2022-10-05T08:12:05.044Z,69.06
2022-10-05T08:14:41.517Z,68.28
2022-10-05T08:17:25.658Z,67.31
2022-10-05T08:20:07.739Z,68.32
2022-10-05T08:22:47.461Z,67.07
2022-10-05T08:25:25.806Z,67.05
2022-10-05T08:28:04.508Z,66.89
2022-10-05T08:30:51.950Z,66.25
2022-10-05T08:33:24.971Z,67.50
2022-10-05T08:36:04.619Z,66.78
2022-10-05T08:38:36.211Z,66.21
2022-10-05T08:41:34.171Z,64.76
2022-10-05T08:44:32.681Z,65.81
2022-10-05T08:47:19.674Z,67.60
2022-10-05T08:50:16.029Z,66.97
2022-10-05T08:53:16.858Z,65.98
2022-10-05T08:56:03.634Z,66.70
2022-10-05T08:59:02.604Z,64.62
2022-10-05T09:01:47.554Z,66.76
2022-10-05T09:04:30.136Z,66.28
2022-10-05T09:07:14.574Z,64.49
2022-10-05T09:10:32.683Z,64.65
2022-10-05T09:13:24.515Z,63.39
2022-10-05T09:16:26.859Z,63.66
2022-10-05T09:19:11.301Z,64.48
2022-10-05T09:21:43.654Z,64.11
2022-10-05T09:24:28.483Z,64.04
2022-10-05T09:27:08.958Z,63.67
2022-10-05T09:30:27.190Z,62.59
2022-10-05T09:33:35.244Z,63.64
2022-10-05T09:36:32.552Z,62.43
2022-10-05T09:39:30.938Z,62.33
2022-10-05T09:42:37.530Z,63.61
2022-10-05T09:45:44.409Z,62.07
2022-10-05T09:48:58.066Z,61.52
2022-10-05T09:52:03.779Z,61.69
2022-10-05T09:55:17.631Z,63.01
2022-10-05T09:58:30.484Z,60.72
2022-10-05T10:01:29.242Z,61.89
2022-10-05T10:04:34.175Z,58.83
2022-10-05T10:07:37.891Z,58.97
2022-10-05T10:10:39.354Z,59.77
2022-10-05T10:13:34.773Z,60.44
2022-10-05T10:16:20.302Z,60.48
2022-10-05T10:19:20.668Z,60.87
2022-10-05T10:22:25.695Z,60.37
2022-10-05T10:25:25.715Z,59.51
2022-10-05T10:28:20.007Z,58.62
2022-10-05T10:31:12.491Z,58.64
2022-10-05T10:34:09.342Z,59.45
2022-10-05T10:36:59.720Z,59.17
2022-10-05T10:39:45.272Z,58.47
2022-10-05T10:42:36.820Z,56.95
2022-10-05T10:45:28.699Z,54.58
2022-10-05T10:48:11.014Z,55.03
2022-10-05T10:51:19.350Z,51.29
2022-10-05T10:54:26.115Z,55.20
2022-10-05T10:57:04.115Z,56.23
2022-10-05T11:00:15.733Z,54.89
2022-10-05T11:03:13.520Z,53.36
2022-10-05T11:06:17.437Z,52.00
2022-10-05T11:09:37.924Z,53.09
2022-10-05T11:12:51.986Z,53.82
2022-10-05T11:16:02.276Z,52.41
2022-10-05T11:18:53.735Z,54.00
2022-10-05T11:21:30.595Z,54.23
2022-10-05T11:24:38.922Z,53.46
2022-10-05T11:27:23.983Z,55.40
2022-10-05T11:30:23.077Z,54.85
2022-10-05T11:33:23.138Z,55.14
2022-10-05T11:36:26.738Z,56.13
2022-10-05T11:39:37.108Z,55.69
2022-10-05T11:42:41.428Z,56.32
2022-10-05T11:45:36.440Z,57.46
2022-10-05T11:48:36.099Z,57.24
2022-10-05T11:51:48.821Z,58.09
2022-10-05T11:54:38.266Z,58.98
2022-10-05T11:57:21.220Z,58.44
2022-10-05T11:59:57.935Z,58.11
2022-10-05T12:02:45.070Z,56.88
2022-10-05T12:05:21.421Z,54.45
2022-10-05T12:07:58.427Z,50.85
2022-10-05T12:10:36.030Z,52.32
2022-10-05T12:13:26.041Z,50.60
2022-10-05T12:15:59.999Z,49.96
2022-10-05T12:18:57.631Z,52.80
2022-10-05T12:21:38.112Z,54.25
2022-10-05T12:24:21.230Z,54.31
2022-10-05T12:27:00.086Z,54.61
2022-10-05T12:29:38.430Z,53.32
2022-10-05T12:32:17.196Z,53.15
2022-10-05T12:35:01.810Z,53.45
2022-10-05T12:37:42.307Z,52.64
2022-10-05T12:40:29.498Z,54.08
2022-10-05T12:43:06.251Z,52.76
2022-10-05T12:45:53.013Z,51.88
2022-10-05T12:48:39.523Z,51.28
2022-10-05T12:51:16.701Z,48.64
2022-10-05T12:53:56.818Z,47.83
2022-10-05T12:56:40.805Z,45.19
2022-10-05T12:59:20.678Z,44.91
2022-10-05T13:01:57.096Z,44.77
2022-10-05T13:04:40.948Z,45.56
2022-10-05T13:07:42.331Z,48.41
2022-10-05T13:10:28.324Z,48.90
2022-10-05T13:13:20.850Z,47.21
2022-10-05T13:15:55.903Z,44.68
2022-10-05T13:18:37.284Z,46.35
2022-10-05T13:21:13.062Z,46.78
2022-10-05T13:23:57.130Z,49.28
2022-10-05T13:26:33.654Z,50.87
2022-10-05T13:29:14.469Z,50.58
2022-10-05T13:31:49.482Z,48.91
2022-10-05T13:34:27.604Z,47.57
2022-10-05T13:37:07.192Z,46.99
2022-10-05T13:39:55.434Z,48.59
2022-10-05T13:42:34.479Z,50.12
2022-10-05T13:45:15.121Z,50.68
2022-10-05T13:47:53.908Z,51.87
2022-10-05T13:50:29.802Z,52.20
2022-10-05T13:53:12.309Z,53.26
2022-10-05T13:55:48.031Z,54.10
2022-10-05T13:58:26.431Z,53.38
2022-10-05T14:01:01.712Z,54.39
2022-10-05T14:03:35.098Z,54.58
2022-10-05T14:06:11.789Z,53.78
2022-10-05T14:08:52.193Z,52.52
2022-10-05T14:11:31.438Z,51.45
2022-10-05T14:14:15.882Z,54.23
2022-10-05T14:16:55.338Z,54.49
2022-10-05T14:19:28.648Z,54.82
2022-10-05T14:22:03.647Z,55.27
2022-10-05T14:24:44.794Z,56.79
2022-10-05T14:27:22.784Z,56.60
2022-10-05T14:29:59.880Z,57.28
2022-10-05T14:32:33.819Z,57.50
2022-10-05T14:35:15.919Z,57.25
2022-10-05T14:37:51.875Z,59.07
2022-10-05T14:40:27.525Z,59.01
2022-10-05T14:42:57.874Z,60.62
2022-10-05T14:45:30.269Z,59.77
2022-10-05T14:48:12.942Z,60.23
2022-10-05T14:51:02.267Z,60.29
2022-10-05T14:53:41.878Z,61.62
2022-10-05T14:56:42.579Z,61.17
2022-10-05T14:59:30.485Z,62.15
2022-10-05T15:02:23.303Z,63.31
2022-10-05T15:05:02.198Z,63.10
2022-10-05T15:07:39.161Z,63.79
2022-10-05T15:10:33.987Z,63.89
2022-10-05T15:13:17.019Z,62.96
2022-10-05T15:15:54.011Z,63.96
2022-10-05T15:18:34.814Z,63.54
2022-10-05T15:21:26.605Z,64.04
2022-10-05T15:23:58.674Z,64.59
2022-10-05T15:26:43.752Z,64.07
2022-10-05T15:29:27.657Z,64.66
2022-10-05T15:32:03.306Z,65.38
2022-10-05T15:34:40.479Z,64.92
2022-10-05T15:37:21.152Z,65.84
2022-10-05T15:39:54.071Z,66.26
2022-10-05T15:42:32.031Z,66.36
2022-10-05T15:45:09.085Z,67.37
2022-10-05T15:47:52.133Z,67.32
2022-10-05T15:50:27.074Z,67.22
2022-10-05T15:53:08.514Z,67.48
2022-10-05T15:55:48.390Z,67.43
2022-10-05T15:58:48.072Z,67.16
2022-10-05T16:01:21.539Z,67.44
2022-10-05T16:03:55.625Z,67.96
2022-10-05T16:06:52.631Z,67.22
2022-10-05T16:09:47.288Z,67.77
2022-10-05T16:12:26.277Z,68.67
2022-10-05T16:15:17.093Z,69.21
2022-10-05T16:18:09.279Z,68.43
2022-10-05T16:20:50.170Z,68.33
2022-10-05T16:23:34.507Z,68.07
2022-10-05T16:26:24.039Z,68.88
2022-10-05T16:29:03.781Z,70.40
2022-10-05T16:31:43.966Z,70.39
2022-10-05T16:34:25.528Z,71.02
2022-10-05T16:37:04.602Z,72.14
2022-10-05T16:39:56.139Z,71.40
2022-10-05T16:42:47.330Z,71.91
2022-10-05T16:45:45.118Z,72.16
2022-10-05T16:48:23.872Z,71.81
2022-10-05T16:51:09.833Z,73.60
2022-10-05T16:53:42.717Z,73.64
2022-10-05T16:56:15.898Z,73.91
2022-10-05T16:59:00.957Z,72.86
2022-10-05T17:01:42.560Z,73.81
2022-10-05T17:04:25.198Z,74.56
2022-10-05T17:07:17.248Z,74.20
2022-10-05T17:10:29.621Z,74.17
2022-10-05T17:13:07.398Z,75.27
2022-10-05T17:15:55.503Z,74.53
2022-10-05T17:18:51.820Z,75.38
2022-10-05T17:21:35.012Z,74.62
2022-10-05T17:24:21.467Z,74.07
2022-10-05T17:27:07.395Z,74.41
2022-10-05T17:29:49.901Z,75.03
2022-10-05T17:32:57.873Z,74.87
2022-10-05T17:35:52.056Z,75.35
2022-10-05T17:38:23.873Z,76.90
2022-10-05T17:41:26.164Z,76.38
2022-10-05T17:44:19.472Z,75.52
2022-10-05T17:46:51.122Z,75.45
2022-10-05T17:49:47.847Z,74.48
2022-10-05T17:52:42.616Z,75.16
2022-10-05T17:55:48.876Z,74.92
2022-10-05T17:59:01.003Z,73.97
2022-10-05T18:01:32.966Z,75.70
2022-10-05T18:04:32.883Z,74.57
2022-10-05T18:07:19.115Z,76.23
2022-10-05T18:10:14.463Z,75.45
2022-10-05T18:12:51.893Z,75.40
2022-10-05T18:15:46.387Z,75.84
2022-10-05T18:18:56.078Z,76.32
2022-10-05T18:21:29.876Z,77.43
2022-10-05T18:24:31.477Z,76.60
2022-10-05T18:27:28.587Z,76.06
2022-10-05T18:30:15.710Z,77.14
2022-10-05T18:33:17.582Z,76.42
2022-10-05T18:35:58.337Z,77.17
2022-10-05T18:38:53.131Z,78.15
2022-10-05T18:41:33.548Z,78.40
2022-10-05T18:44:20.248Z,78.72
2022-10-05T18:46:58.483Z,79.58
2022-10-05T18:49:44.459Z,79.59
2022-10-05T18:52:22.973Z,79.03
2022-10-05T18:55:03.877Z,78.84
2022-10-05T18:58:14.340Z,78.33
2022-10-05T19:01:06.664Z,77.72
2022-10-05T19:03:46.451Z,78.63
2022-10-05T19:06:25.626Z,77.23
2022-10-05T19:09:06.739Z,77.78
2022-10-05T19:11:46.097Z,79.49
2022-10-05T19:14:24.966Z,79.36
2022-10-05T19:17:06.371Z,77.36
2022-10-05T19:19:46.185Z,77.83
2022-10-05T19:22:28.276Z,77.81
2022-10-05T19:25:17.865Z,77.15
2022-10-05T19:27:58.567Z,78.21
2022-10-05T19:30:36.217Z,77.95
2022-10-05T19:33:29.593Z,77.78
2022-10-05T19:36:14.862Z,77.90
2022-10-05T19:38:55.542Z,77.99
2022-10-05T19:41:36.898Z,78.33
2022-10-05T19:44:20.948Z,77.86
2022-10-05T19:46:59.862Z,78.64
2022-10-05T19:49:38.649Z,78.26
2022-10-05T19:52:21.238Z,78.73
2022-10-05T19:55:04.752Z,78.59
